Time;durP1;ratioP1;P1;durP2;ratioP2;P2;SDS_P1;SDS_P2;PMS_P1;PMS_P2;Temp;Humidity;BMP_temperature;BMP_pressure;BME280_temperature;BME280_humidity;BME280_pressure;Samples;Min_cycle;Max_cycle;Signal;HPM_P1;HPM_P2
2023/03/06 00:00:20;;;;;;;20.95;10.32;;;;;;;4.58;100.00;91586.59;6214805;23;20309;-78
2023/03/06 00:02:46;;;;;;;22.73;11.40;;;;;;;4.56;100.00;91584.25;6173934;23;20017;-78
2023/03/06 00:05:14;;;;;;;20.70;11.38;;;;;;;4.57;100.00;91591.00;6215015;23;20062;-77
2023/03/06 00:07:40;;;;;;;20.30;10.48;;;;;;;4.58;100.00;91589.16;6213560;23;20015;-78
2023/03/06 00:10:06;;;;;;;20.35;11.07;;;;;;;4.57;100.00;91587.59;6213515;23;20008;-78
2023/03/06 00:12:32;;;;;;;19.58;11.20;;;;;;;4.59;100.00;91581.13;6189249;23;20016;-78
2023/03/06 00:14:57;;;;;;;25.98;12.15;;;;;;;4.61;100.00;91586.03;6214845;23;20007;-77
2023/03/06 00:17:23;;;;;;;20.20;10.10;;;;;;;4.61;100.00;91580.84;6188271;23;20031;-78
2023/03/06 00:19:49;;;;;;;23.40;11.05;;;;;;;4.72;100.00;91582.31;6215694;23;20016;-78
2023/03/06 00:22:15;;;;;;;19.65;11.10;;;;;;;4.75;100.00;91583.59;6213941;23;20004;-77
2023/03/06 00:24:41;;;;;;;22.02;11.10;;;;;;;4.89;100.00;91586.34;6188654;23;20070;-77
2023/03/06 00:27:08;;;;;;;20.17;10.50;;;;;;;4.92;100.00;91581.38;6213843;23;20088;-77
2023/03/06 00:29:33;;;;;;;23.35;10.43;;;;;;;4.84;100.00;91576.78;6213348;23;20353;-78
2023/03/06 00:31:59;;;;;;;21.08;10.82;;;;;;;4.75;100.00;91581.78;6213165;23;20036;-78
2023/03/06 00:34:25;;;;;;;20.30;9.57;;;;;;;4.81;100.00;91582.50;6214418;23;20441;-78
2023/03/06 00:36:51;;;;;;;22.70;10.70;;;;;;;4.79;100.00;91579.41;6213589;23;20012;-78
2023/03/06 00:39:16;;;;;;;21.23;10.00;;;;;;;4.82;100.00;91576.28;6213918;23;20039;-78
2023/03/06 00:41:42;;;;;;;24.52;10.88;;;;;;;4.81;100.00;91574.72;6213914;23;20100;-78
2023/03/06 00:44:08;;;;;;;22.45;9.50;;;;;;;4.93;100.00;91575.16;6214726;23;20071;-78
2023/03/06 00:46:33;;;;;;;25.08;11.25;;;;;;;4.93;100.00;91577.75;6215109;23;20111;-77
2023/03/06 00:49:00;;;;;;;24.50;11.05;;;;;;;4.74;100.00;91580.22;6214211;23;20047;-78
2023/03/06 00:51:26;;;;;;;21.75;9.95;;;;;;;4.86;100.00;91579.09;6188826;23;20340;-78
2023/03/06 00:53:51;;;;;;;22.48;10.90;;;;;;;4.78;100.00;91577.88;6215758;23;20045;-78
2023/03/06 00:56:18;;;;;;;25.02;11.00;;;;;;;4.72;100.00;91568.59;6188417;23;20013;-78
2023/03/06 00:58:44;;;;;;;23.17;10.35;;;;;;;4.76;100.00;91567.75;6213345;23;20012;-77
2023/03/06 01:01:10;;;;;;;24.05;10.93;;;;;;;4.70;100.00;91574.03;6212739;23;20348;-77
2023/03/06 01:03:35;;;;;;;21.23;10.27;;;;;;;4.62;100.00;91561.66;6213627;23;20599;-77
2023/03/06 01:06:01;;;;;;;23.80;10.35;;;;;;;4.58;100.00;91565.84;6188382;23;20047;-78
2023/03/06 01:08:26;;;;;;;25.85;10.48;;;;;;;4.51;100.00;91560.19;6213117;23;20062;-78
2023/03/06 01:10:55;;;;;;;25.75;10.60;;;;;;;4.59;100.00;91570.78;6187871;23;20393;-78
2023/03/06 01:13:20;;;;;;;27.15;10.75;;;;;;;4.64;100.00;91562.19;6188403;23;20017;-78
2023/03/06 01:15:46;;;;;;;22.45;11.00;;;;;;;4.57;100.00;91564.28;6215263;23;20007;-78
2023/03/06 01:18:12;;;;;;;24.55;11.63;;;;;;;4.47;100.00;91564.38;6214300;23;20012;-78
2023/03/06 01:20:37;;;;;;;20.75;10.55;;;;;;;4.38;100.00;91562.34;6213155;23;20017;-78
2023/03/06 01:23:03;;;;;;;19.60;9.95;;;;;;;4.71;100.00;91560.03;6162707;23;20004;-78
2023/03/06 01:25:28;;;;;;;20.83;10.27;;;;;;;4.75;100.00;91558.44;6213131;23;20016;-78
2023/03/06 01:27:54;;;;;;;23.45;10.35;;;;;;;4.47;100.00;91559.19;6212402;23;20383;-78
2023/03/06 01:30:20;;;;;;;24.65;10.77;;;;;;;4.46;100.00;91552.44;6214212;23;20013;-78
2023/03/06 01:32:47;;;;;;;24.77;11.07;;;;;;;4.40;100.00;91554.31;6213447;23;20017;-77
2023/03/06 01:35:13;;;;;;;17.38;8.25;;;;;;;4.49;100.00;91551.91;6215012;23;20340;-78
2023/03/06 01:37:39;;;;;;;24.20;10.60;;;;;;;4.44;100.00;91554.56;6212386;23;20074;-77
2023/03/06 01:40:07;;;;;;;25.10;10.48;;;;;;;4.43;100.00;91543.41;6212770;23;20340;-78
2023/03/06 01:42:33;;;;;;;21.48;10.07;;;;;;;4.47;100.00;91551.41;6187772;23;20012;-78
2023/03/06 01:45:08;;;;;;;25.83;11.02;;;;;;;4.36;100.00;91548.88;6213658;23;20021;-78
2023/03/06 01:47:34;;;;;;;25.17;10.63;;;;;;;4.33;100.00;91546.09;6212583;23;20024;-78
2023/03/06 01:50:02;;;;;;;22.90;10.35;;;;;;;4.26;100.00;91543.03;6216342;23;20428;-77
2023/03/06 01:52:34;;;;;;;25.02;10.63;;;;;;;4.29;100.00;91537.28;6216347;23;20475;-77
2023/03/06 01:55:23;;;;;;;23.65;10.70;;;;;;;4.32;100.00;91540.13;6216310;23;20016;-78
2023/03/06 01:57:53;;;;;;;22.00;9.88;;;;;;;4.29;100.00;91538.06;6215697;23;20396;-77
2023/03/06 02:00:23;;;;;;;23.00;10.98;;;;;;;4.28;100.00;91538.31;6212236;23;20396;-77
2023/03/06 02:02:52;;;;;;;27.45;11.25;;;;;;;4.22;100.00;91537.59;6216202;23;20016;-77
2023/03/06 02:05:18;;;;;;;19.15;10.85;;;;;;;4.19;100.00;91540.75;6215845;23;20445;-77
2023/03/06 02:07:45;;;;;;;32.28;11.73;;;;;;;4.21;100.00;91530.88;6188538;23;20020;-77
2023/03/06 02:10:14;;;;;;;22.33;9.93;;;;;;;4.27;100.00;91526.44;6188992;23;20391;-78
2023/03/06 02:12:42;;;;;;;25.52;10.80;;;;;;;4.32;100.00;91532.34;6189814;23;20073;-77
2023/03/06 02:15:14;;;;;;;21.38;10.68;;;;;;;4.29;100.00;91529.53;6189599;23;20015;-78
2023/03/06 02:17:43;;;;;;;21.23;10.20;;;;;;;4.25;100.00;91525.91;6189024;23;20084;-78
2023/03/06 02:20:14;;;;;;;30.08;11.18;;;;;;;4.25;100.00;91524.09;6215021;23;20437;-78
2023/03/06 02:22:47;;;;;;;23.08;10.52;;;;;;;4.25;100.00;91518.91;6215758;23;20009;-78
2023/03/06 02:25:31;;;;;;;21.75;10.57;;;;;;;4.25;100.00;91521.50;6189482;23;20099;-78
2023/03/06 02:27:56;;;;;;;25.20;11.23;;;;;;;4.24;100.00;91519.97;6189825;23;20047;-78
2023/03/06 02:30:24;;;;;;;21.55;11.10;;;;;;;4.26;100.00;91510.13;6164189;23;20091;-78
2023/03/06 02:32:50;;;;;;;24.17;11.02;;;;;;;4.28;100.00;91515.00;6189530;23;20336;-78
2023/03/06 02:35:24;;;;;;;20.75;11.60;;;;;;;4.31;100.00;91504.88;6189126;23;20020;-78
2023/03/06 02:37:51;;;;;;;23.30;11.15;;;;;;;4.33;100.00;91507.97;6216092;23;20008;-78
2023/03/06 02:40:19;;;;;;;31.98;11.13;;;;;;;4.34;100.00;91504.34;6188708;23;20091;-78
2023/03/06 02:42:49;;;;;;;24.80;11.88;;;;;;;4.34;100.00;91511.34;6164485;23;20008;-78
2023/03/06 02:45:45;;;;;;;23.63;11.60;;;;;;;4.32;100.00;91501.28;6189470;23;20043;-77
2023/03/06 02:48:11;;;;;;;26.35;11.50;;;;;;;4.37;100.00;91498.63;6185242;23;20095;-78
2023/03/06 02:50:38;;;;;;;23.95;12.05;;;;;;;4.35;100.00;91498.13;6164697;23;20019;-78
2023/03/06 02:53:05;;;;;;;22.10;10.55;;;;;;;4.29;100.00;91490.66;6216266;23;20420;-77
2023/03/06 02:55:32;;;;;;;24.63;10.48;;;;;;;4.32;100.00;91496.09;6188952;23;20027;-78
2023/03/06 02:57:58;;;;;;;16.55;8.65;;;;;;;4.49;100.00;91497.50;6189050;23;20500;-78
2023/03/06 03:00:24;;;;;;;26.23;10.45;;;;;;;4.35;100.00;91495.53;6187775;23;20043;-78
2023/03/06 03:02:50;;;;;;;24.60;9.82;;;;;;;4.25;100.00;91493.00;6214400;23;20023;-77
2023/03/06 03:05:16;;;;;;;22.58;10.15;;;;;;;4.15;100.00;91485.34;6216144;23;20012;-78
2023/03/06 03:07:44;;;;;;;23.08;10.75;;;;;;;4.06;100.00;91486.94;6165317;23;20012;-78
2023/03/06 03:10:12;;;;;;;21.02;10.98;;;;;;;4.08;100.00;91485.63;6188528;23;20020;-78
2023/03/06 03:12:38;;;;;;;21.75;10.23;;;;;;;4.13;100.00;91488.19;6189432;23;20055;-77
2023/03/06 03:15:04;;;;;;;22.27;10.82;;;;;;;4.09;100.00;91470.88;6215641;23;20008;-77
2023/03/06 03:17:30;;;;;;;18.92;10.07;;;;;;;4.09;100.00;91482.00;6164302;23;20023;-78
2023/03/06 03:19:56;;;;;;;17.77;10.23;;;;;;;4.00;100.00;91475.84;6214969;23;20004;-77
2023/03/06 03:22:22;;;;;;;23.98;10.77;;;;;;;3.96;100.00;91474.84;6214801;23;20070;-77
2023/03/06 03:24:48;;;;;;;24.60;10.55;;;;;;;3.87;100.00;91459.13;6186928;23;20356;-78
2023/03/06 03:27:14;;;;;;;21.30;10.00;;;;;;;3.92;100.00;91479.78;6188477;23;20099;-78
2023/03/06 03:29:41;;;;;;;28.83;11.07;;;;;;;3.91;100.00;91470.47;6188475;23;20080;-78
2023/03/06 03:32:07;;;;;;;24.60;10.80;;;;;;;3.90;100.00;91473.34;6213366;23;20100;-78
2023/03/06 03:34:33;;;;;;;18.35;10.07;;;;;;;3.88;100.00;91471.00;6214934;23;20433;-78
2023/03/06 03:36:59;;;;;;;21.63;10.00;;;;;;;3.87;100.00;91468.69;6188539;23;20024;-77
2023/03/06 03:39:24;;;;;;;21.45;10.00;;;;;;;3.87;100.00;91468.69;6188725;23;20001;-77
2023/03/06 03:41:50;;;;;;;23.70;10.50;;;;;;;3.85;100.00;91470.75;6188826;23;20043;-78
2023/03/06 03:44:16;;;;;;;22.65;10.55;;;;;;;3.85;100.00;91463.78;6189898;23;20021;-77
2023/03/06 03:46:41;;;;;;;18.17;10.15;;;;;;;3.85;100.00;91463.00;6189035;23;20321;-77
2023/03/06 03:49:12;;;;;;;21.25;10.60;;;;;;;3.87;100.00;91466.88;6188510;23;20043;-78
2023/03/06 03:51:37;;;;;;;19.48;10.23;;;;;;;3.86;100.00;91464.56;6164316;23;20012;-77
2023/03/06 03:54:05;;;;;;;21.83;9.98;;;;;;;3.88;100.00;91459.88;6164592;23;20020;-77
2023/03/06 03:56:35;;;;;;;27.10;10.68;;;;;;;3.85;100.00;91453.44;6216005;23;20008;-78
2023/03/06 03:59:07;;;;;;;22.30;10.13;;;;;;;3.90;100.00;91461.16;6188524;23;20031;-78
2023/03/06 04:01:39;;;;;;;25.23;10.77;;;;;;;3.89;100.00;91462.19;6188644;23;20016;-78
2023/03/06 04:04:05;;;;;;;23.42;10.43;;;;;;;3.89;100.00;91459.59;6163642;23;20020;-78
2023/03/06 04:06:31;;;;;;;22.23;10.55;;;;;;;3.87;100.00;91463.50;6138654;23;20015;-78
2023/03/06 04:08:56;;;;;;;23.35;9.88;;;;;;;3.90;100.00;91462.97;6187223;23;20013;-78
2023/03/06 04:11:24;;;;;;;22.58;9.68;;;;;;;3.90;100.00;91463.75;6186689;23;20326;-77
2023/03/06 04:13:49;;;;;;;21.90;9.68;;;;;;;3.93;100.00;91458.03;6187323;23;20031;-78
2023/03/06 04:16:16;;;;;;;19.27;10.40;;;;;;;3.90;100.00;91455.97;6187388;23;20012;-78
2023/03/06 04:18:42;;;;;;;21.98;10.15;;;;;;;3.90;100.00;91450.81;6188506;23;20436;-78
2023/03/06 04:21:07;;;;;;;24.70;9.48;;;;;;;3.89;100.00;91451.06;6188470;23;20518;-78
2023/03/06 04:23:33;;;;;;;19.27;8.98;;;;;;;3.87;100.00;91453.94;6189023;23;20020;-78
2023/03/06 04:25:59;;;;;;;23.10;9.52;;;;;;;3.86;100.00;91452.38;6189897;23;20067;-78
2023/03/06 04:28:25;;;;;;;18.80;9.40;;;;;;;3.87;100.00;91447.97;6163967;23;20096;-78
2023/03/06 04:30:50;;;;;;;22.25;9.00;;;;;;;3.85;100.00;91443.09;6189414;23;20012;-78
2023/03/06 04:33:17;;;;;;;21.17;9.10;;;;;;;3.84;100.00;91441.53;6213319;23;20001;-78
2023/03/06 04:35:43;;;;;;;20.27;9.05;;;;;;;3.81;100.00;91434.31;6188141;23;20047;-77
2023/03/06 04:38:14;;;;;;;21.08;9.25;;;;;;;3.84;100.00;91438.16;6187534;23;20004;-78
2023/03/06 04:40:40;;;;;;;21.40;8.80;;;;;;;3.84;100.00;91443.34;6187499;23;20016;-78
2023/03/06 04:43:05;;;;;;;26.65;9.40;;;;;;;3.81;100.00;91449.84;6214559;23;20479;-78
2023/03/06 04:45:32;;;;;;;19.33;8.93;;;;;;;3.82;100.00;91448.78;6214675;23;20016;-78
2023/03/06 04:47:58;;;;;;;19.48;9.40;;;;;;;3.83;100.00;91447.75;6188180;23;20021;-78
2023/03/06 04:50:25;;;;;;;18.65;8.82;;;;;;;3.85;100.00;91444.88;6212967;23;20015;-78
2023/03/06 04:52:51;;;;;;;21.08;8.63;;;;;;;3.84;100.00;91438.16;6215197;23;20016;-78
2023/03/06 04:55:18;;;;;;;21.73;9.43;;;;;;;3.85;100.00;91445.66;6215079;23;20012;-78
2023/03/06 04:57:45;;;;;;;30.30;9.25;;;;;;;3.85;100.00;91447.47;6214774;23;20001;-78
2023/03/06 05:00:14;;;;;;;23.70;8.68;;;;;;;3.85;100.00;91445.66;6188101;23;20070;-77
2023/03/06 05:02:42;;;;;;;20.50;8.43;;;;;;;3.81;100.00;91439.47;6213324;23;20024;-77
2023/03/06 05:05:09;;;;;;;17.85;8.20;;;;;;;3.85;100.00;91442.28;6188217;23;20008;-77
2023/03/06 05:07:34;;;;;;;19.17;8.30;;;;;;;3.84;100.00;91441.53;6187668;23;20021;-77
2023/03/06 05:10:00;;;;;;;25.35;9.77;;;;;;;3.85;100.00;91437.09;6214379;23;20344;-78
2023/03/06 05:12:25;;;;;;;20.75;8.43;;;;;;;3.85;100.00;91434.53;6215120;23;20066;-77
2023/03/06 05:14:51;;;;;;;25.27;9.18;;;;;;;3.88;100.00;91439.19;6214309;23;20008;-78
2023/03/06 05:17:17;;;;;;;17.60;8.70;;;;;;;3.89;100.00;91438.13;6213744;23;20012;-78
2023/03/06 05:19:42;;;;;;;25.80;8.35;;;;;;;3.88;100.00;91439.94;6188631;23;20333;-78
2023/03/06 05:22:08;;;;;;;23.95;8.02;;;;;;;3.89;100.00;91438.88;6215387;23;20009;-77
2023/03/06 05:24:35;;;;;;;23.27;8.35;;;;;;;3.89;100.00;91432.94;6213732;23;20068;-78
2023/03/06 05:27:01;;;;;;;19.77;8.20;;;;;;;3.90;100.00;91437.09;6214039;23;20345;-78
2023/03/06 05:29:27;;;;;;;22.92;8.25;;;;;;;3.88;100.00;91429.59;6187725;23;20004;-77
2023/03/06 05:31:52;;;;;;;20.60;9.02;;;;;;;3.91;100.00;91436.03;6185199;23;20063;-77
2023/03/06 05:34:18;;;;;;;22.08;8.88;;;;;;;3.90;100.00;91430.09;6212999;23;20016;-78
2023/03/06 05:36:43;;;;;;;23.73;8.45;;;;;;;3.92;100.00;91440.94;6214129;23;20021;-78
2023/03/06 05:39:09;;;;;;;18.42;7.60;;;;;;;3.90;100.00;91430.09;6163804;23;20423;-77
2023/03/06 05:41:34;;;;;;;17.77;8.00;;;;;;;3.94;100.00;91431.09;6162720;23;20091;-78
2023/03/06 05:44:00;;;;;;;21.23;8.52;;;;;;;3.93;100.00;91433.94;6187585;23;20079;-79
2023/03/06 05:46:26;;;;;;;18.35;7.72;;;;;;;3.93;100.00;91432.13;6163330;23;20000;-77
2023/03/06 05:48:56;;;;;;;16.77;7.40;;;;;;;3.92;100.00;91430.59;6185963;23;20456;-77
2023/03/06 05:51:22;;;;;;;22.70;8.25;;;;;;;3.97;100.00;91425.38;6191919;23;20067;-76
2023/03/06 05:53:47;;;;;;;19.50;7.88;;;;;;;3.97;100.00;91425.38;6210504;23;20001;-77
2023/03/06 05:56:13;;;;;;;18.98;8.73;;;;;;;4.00;100.00;91421.47;6218807;23;20016;-79
2023/03/06 05:58:39;;;;;;;26.33;8.40;;;;;;;4.01;100.00;91417.84;6218946;23;20017;-77
2023/03/06 06:01:16;;;;;;;20.73;8.43;;;;;;;4.01;100.00;91423.03;6220901;23;20008;-78
2023/03/06 06:03:42;;;;;;;22.17;7.90;;;;;;;4.01;100.00;91417.84;6224682;23;20021;-78
2023/03/06 06:06:11;;;;;;;17.70;7.70;;;;;;;4.01;100.00;91419.63;6227634;23;20054;-80
2023/03/06 06:08:37;;;;;;;27.17;8.73;;;;;;;4.05;100.00;91418.06;6191850;23;20008;-78
2023/03/06 06:11:07;;;;;;;17.65;7.63;;;;;;;4.04;100.00;91425.06;6216615;23;20008;-79
2023/03/06 06:13:33;;;;;;;21.83;8.65;;;;;;;4.06;100.00;91429.97;6194179;23;20016;-78
2023/03/06 06:15:59;;;;;;;25.23;8.80;;;;;;;4.06;100.00;91419.63;6194645;23;20490;-78
2023/03/06 06:18:24;;;;;;;20.00;8.70;;;;;;;4.08;100.00;91425.31;6199808;23;20025;-78
2023/03/06 06:20:50;;;;;;;16.83;7.78;;;;;;;4.09;100.00;91426.84;6200632;23;20016;-79
2023/03/06 06:23:16;;;;;;;19.50;7.82;;;;;;;4.07;100.00;91429.69;6199312;23;20004;-78
2023/03/06 06:25:41;;;;;;;20.52;8.38;;;;;;;4.08;100.00;91423.47;6227488;23;20019;-78
2023/03/06 06:28:07;;;;;;;25.08;7.72;;;;;;;4.08;100.00;91427.91;6227567;23;20349;-78
2023/03/06 06:30:32;;;;;;;20.95;8.23;;;;;;;4.08;100.00;91430.47;6174135;23;20016;-78
2023/03/06 06:32:58;;;;;;;20.27;8.32;;;;;;;4.10;100.00;91426.56;6201271;23;20016;-78
2023/03/06 06:35:25;;;;;;;20.85;8.73;;;;;;;4.15;100.00;91423.94;6203232;23;20016;-81
2023/03/06 06:37:51;;;;;;;19.00;8.30;;;;;;;4.19;100.00;91429.34;6199382;23;20000;-79
2023/03/06 06:40:17;;;;;;;18.92;8.20;;;;;;;4.26;100.00;91424.63;6224871;23;20087;-78
2023/03/06 06:42:45;;;;;;;24.58;8.30;;;;;;;4.28;100.00;91432.91;6228018;23;20445;-78
2023/03/06 06:45:11;;;;;;;17.98;8.73;;;;;;;4.26;100.00;91434.97;6202562;23;20090;-77
2023/03/06 06:47:40;;;;;;;19.38;8.32;;;;;;;4.22;100.00;91439.16;6229617;23;20012;-78
2023/03/06 06:50:10;;;;;;;18.05;8.50;;;;;;;4.18;100.00;91436.31;6228302;23;20075;-78
2023/03/06 06:52:35;;;;;;;17.65;8.27;;;;;;;4.18;100.00;91440.75;6202832;23;20032;-78
2023/03/06 06:55:01;;;;;;;19.20;8.57;;;;;;;4.18;100.00;91441.50;6177507;23;20047;-78
2023/03/06 06:57:26;;;;;;;18.50;8.25;;;;;;;4.20;100.00;91440.47;6202610;23;20009;-78
2023/03/06 06:59:52;;;;;;;22.30;8.95;;;;;;;4.21;100.00;91445.41;6202626;23;20001;-78
2023/03/06 07:02:18;;;;;;;23.90;8.80;;;;;;;4.22;100.00;91441.75;6203156;23;20048;-78
2023/03/06 07:04:43;;;;;;;25.02;8.82;;;;;;;4.24;100.00;91444.84;6203114;23;20012;-78
2023/03/06 07:07:09;;;;;;;21.95;8.43;;;;;;;4.27;100.00;91444.28;6228571;23;20368;-78
2023/03/06 07:09:36;;;;;;;17.05;8.13;;;;;;;4.29;100.00;91444.03;6225749;23;20023;-78
2023/03/06 07:12:01;;;;;;;27.05;8.98;;;;;;;4.31;100.00;91447.88;6226729;23;20016;-78
2023/03/06 07:14:27;;;;;;;16.50;8.20;;;;;;;4.34;100.00;91446.56;6226245;23;20083;-78
2023/03/06 07:16:52;;;;;;;20.52;8.57;;;;;;;4.35;100.00;91443.72;6227765;23;20016;-79
2023/03/06 07:19:18;;;;;;;16.83;8.70;;;;;;;4.36;100.00;91439.28;6228535;23;20100;-79
2023/03/06 07:21:43;;;;;;;19.73;8.18;;;;;;;4.42;100.00;91447.81;6227408;23;20084;-78
2023/03/06 07:24:09;;;;;;;18.75;8.45;;;;;;;4.45;100.00;91448.03;6227299;23;20024;-78
2023/03/06 07:26:35;;;;;;;21.80;8.57;;;;;;;4.43;100.00;91450.09;6201150;23;20095;-78
2023/03/06 07:29:02;;;;;;;18.48;8.35;;;;;;;4.43;100.00;91449.34;6176420;23;20007;-78
2023/03/06 07:31:27;;;;;;;15.90;7.90;;;;;;;4.42;100.00;91447.81;6226884;23;20348;-78
2023/03/06 07:33:53;;;;;;;23.33;8.05;;;;;;;4.67;100.00;91444.97;6226615;23;20017;-78
2023/03/06 07:36:21;;;;;;;17.63;6.57;;;;;;;4.70;100.00;91441.81;6227742;23;20004;-78
2023/03/06 07:38:46;;;;;;;16.27;8.27;;;;;;;4.74;100.00;91445.41;6226863;23;20013;-78
2023/03/06 07:41:15;;;;;;;15.93;7.70;;;;;;;4.67;100.00;91446.78;6226059;23;20020;-78
2023/03/06 07:43:41;;;;;;;14.23;7.57;;;;;;;4.64;100.00;91453.28;6200794;23;20028;-78
2023/03/06 07:46:07;;;;;;;20.20;7.95;;;;;;;4.54;100.00;91445.59;6225309;23;20020;-78
2023/03/06 07:48:34;;;;;;;17.00;7.88;;;;;;;4.48;100.00;91442.31;6228104;23;20016;-78
2023/03/06 07:51:20;;;;;;;15.63;7.55;;;;;;;4.50;100.00;91445.41;6227516;23;19992;-78
2023/03/06 07:53:49;;;;;;;21.80;8.23;;;;;;;4.50;100.00;91440.22;6228871;23;20008;-78
2023/03/06 07:56:15;;;;;;;23.05;8.30;;;;;;;4.54;100.00;91445.59;6226481;23;20009;-78
2023/03/06 07:58:43;;;;;;;19.73;8.23;;;;;;;4.55;100.00;91439.41;6226219;23;20035;-78
2023/03/06 08:01:12;;;;;;;16.73;8.15;;;;;;;4.67;100.00;91444.97;6225863;23;20384;-79
2023/03/06 08:03:37;;;;;;;20.13;8.38;;;;;;;4.67;100.00;91434.59;6228148;23;20456;-79
2023/03/06 08:06:24;;;;;;;19.60;8.07;;;;;;;4.68;100.00;91440.53;6227533;23;20031;-78
2023/03/06 08:08:51;;;;;;;18.90;8.52;;;;;;;4.66;100.00;91437.44;6227113;23;20060;-78
2023/03/06 08:11:19;;;;;;;16.67;7.70;;;;;;;4.67;100.00;91439.00;6226541;23;20009;-78
2023/03/06 08:13:47;;;;;;;17.75;8.43;;;;;;;4.73;100.00;91437.91;6175647;23;20379;-78
2023/03/06 08:16:14;;;;;;;18.95;8.52;;;;;;;4.79;100.00;91434.97;6225416;23;20017;-78
2023/03/06 08:18:40;;;;;;;17.77;8.38;;;;;;;4.94;100.00;91433.28;6224976;23;20016;-78
2023/03/06 08:21:14;;;;;;;19.95;8.57;;;;;;;5.11;100.00;91436.19;6227383;23;20015;-78
2023/03/06 08:23:40;;;;;;;14.93;7.97;;;;;;;5.14;100.00;91434.88;6201865;23;20017;-78
2023/03/06 08:26:12;;;;;;;17.17;8.13;;;;;;;5.09;100.00;91440.09;6200136;23;20012;-78
2023/03/06 08:28:38;;;;;;;19.55;8.25;;;;;;;5.07;100.00;91435.19;6227033;23;20012;-78
2023/03/06 08:31:21;;;;;;;16.63;7.93;;;;;;;5.04;100.00;91437.56;6227055;23;20004;-78
2023/03/06 08:33:47;;;;;;;17.20;8.00;;;;;;;5.20;100.00;91441.50;6201068;23;20019;-78
2023/03/06 08:36:12;;;;;;;21.08;7.97;;;;;;;5.43;100.00;91434.75;6176876;23;20008;-78
2023/03/06 08:38:38;;;;;;;17.23;7.75;;;;;;;5.36;100.00;91434.34;6228211;23;20105;-78
2023/03/06 08:41:04;;;;;;;19.08;8.05;;;;;;;5.27;100.00;91441.97;6174821;23;20020;-78
2023/03/06 08:43:29;;;;;;;22.15;7.80;;;;;;;5.35;100.00;91443.94;6176157;23;20086;-78
2023/03/06 08:45:56;;;;;;;23.33;9.00;;;;;;;5.40;100.00;91441.28;6226364;23;20040;-78
2023/03/06 08:48:22;;;;;;;21.25;8.35;;;;;;;5.34;100.00;91452.00;6226805;23;20095;-78
2023/03/06 08:50:48;;;;;;;17.90;7.50;;;;;;;5.37;100.00;91446.25;6226232;23;20001;-78
2023/03/06 08:53:15;;;;;;;23.60;8.13;;;;;;;5.34;100.00;91449.41;6200975;23;20013;-78
2023/03/06 08:55:41;;;;;;;15.73;8.13;;;;;;;5.26;100.00;91448.19;6227298;23;20020;-78
2023/03/06 08:58:07;;;;;;;18.70;8.18;;;;;;;5.22;100.00;91449.78;6200877;23;20000;-79
2023/03/06 09:00:33;;;;;;;20.85;8.43;;;;;;;5.18;100.00;91449.59;6200600;23;20016;-78
2023/03/06 09:02:59;;;;;;;35.05;9.18;;;;;;;5.20;100.00;91446.72;6213040;23;20027;-78
2023/03/06 09:05:25;;;;;;;19.98;8.00;;;;;;;5.30;100.00;91441.41;6225276;23;20060;-78
2023/03/06 09:07:51;;;;;;;19.10;7.60;;;;;;;5.45;100.00;91442.25;6226508;23;20024;-77
2023/03/06 09:10:19;;;;;;;23.83;8.18;;;;;;;5.52;100.00;91440.09;6224648;23;20023;-78
2023/03/06 09:12:45;;;;;;;24.48;7.75;;;;;;;5.71;100.00;91446.06;6226731;23;19996;-78
2023/03/06 09:15:12;;;;;;;16.50;8.57;;;;;;;5.67;100.00;91444.31;6224800;23;20012;-78
2023/03/06 09:17:37;;;;;;;19.10;7.43;;;;;;;5.82;100.00;91446.69;6227297;23;20012;-78
2023/03/06 09:20:06;;;;;;;17.35;7.63;;;;;;;5.90;100.00;91440.88;6226056;23;20007;-78
2023/03/06 09:22:31;;;;;;;19.98;7.95;;;;;;;5.91;100.00;91442.41;6226994;23;20008;-78
2023/03/06 09:24:57;;;;;;;18.58;7.95;;;;;;;5.87;100.00;91438.81;6226769;23;20013;-78
2023/03/06 09:27:23;;;;;;;19.45;7.97;;;;;;;5.75;100.00;91438.47;6225572;23;20001;-78
2023/03/06 09:29:48;;;;;;;15.52;8.20;;;;;;;5.77;100.00;91439.75;6200820;23;20383;-78
2023/03/06 09:32:14;;;;;;;21.00;8.57;;;;;;;5.82;100.00;91441.50;6200257;23;20012;-79
2023/03/06 09:34:39;;;;;;;14.05;6.80;;;;;;;6.07;100.00;91447.41;6226959;23;20008;-78
2023/03/06 09:37:05;;;;;;;17.00;7.95;;;;;;;6.03;99.96;91445.38;6227580;23;20043;-79
2023/03/06 09:39:31;;;;;;;24.70;9.00;;;;;;;5.96;100.00;91446.78;6226377;23;20020;-78
2023/03/06 09:41:57;;;;;;;18.10;8.25;;;;;;;5.94;100.00;91448.84;6226654;23;20009;-78
2023/03/06 09:44:29;;;;;;;18.15;8.25;;;;;;;6.01;100.00;91444.88;6226618;23;20721;-79
2023/03/06 09:47:34;;;;;;;20.90;8.00;;;;;;;6.14;100.00;91453.78;6226226;23;20015;-79
2023/03/06 09:50:26;;;;;;;19.45;8.10;;;;;;;6.28;100.00;91458.25;6225888;23;20013;-78
2023/03/06 09:53:16;;;;;;;25.58;8.88;;;;;;;6.44;100.00;91462.94;6220539;23;20058;-77
2023/03/06 09:55:48;;;;;;;17.10;7.80;;;;;;;6.64;100.00;91456.63;6218289;23;20013;-78
2023/03/06 09:58:17;;;;;;;17.58;8.45;;;;;;;6.76;100.00;91453.53;6218082;23;20042;-78
2023/03/06 10:00:42;;;;;;;22.17;8.30;;;;;;;7.01;100.00;91454.16;6218494;23;20016;-78
2023/03/06 10:03:27;;;;;;;15.32;8.38;;;;;;;7.21;93.88;91453.75;6219086;23;20016;-78
2023/03/06 10:06:03;;;;;;;18.90;8.70;;;;;;;7.22;92.76;91450.09;6192522;23;20016;-78
2023/03/06 10:08:34;;;;;;;16.90;8.40;;;;;;;7.27;95.71;91460.41;6219481;23;20035;-78
2023/03/06 10:11:05;;;;;;;17.27;8.48;;;;;;;7.43;92.62;91460.09;6193517;23;20008;-78
2023/03/06 10:13:40;;;;;;;21.55;8.80;;;;;;;7.68;90.27;91448.41;6196688;23;20031;-78
2023/03/06 10:16:24;;;;;;;16.20;9.05;;;;;;;7.72;91.48;91450.13;6196952;23;20012;-78
2023/03/06 10:18:49;;;;;;;8.63;4.38;;;;;;;8.14;87.12;91453.38;6222238;23;20063;-78
2023/03/06 10:21:55;;;;;;;17.48;8.60;;;;;;;8.19;85.33;91451.72;6192289;23;20473;-78
2023/03/06 10:24:38;;;;;;;18.48;8.75;;;;;;;8.33;87.16;91448.00;6194858;23;20421;-78
2023/03/06 10:27:46;;;;;;;11.45;5.38;;;;;;;7.96;85.49;91454.28;6194930;23;20017;-78
2023/03/06 10:30:24;;;;;;;17.15;8.30;;;;;;;8.03;87.69;91449.44;6150983;23;20078;-78
2023/03/06 10:33:12;;;;;;;20.50;8.35;;;;;;;8.09;86.29;91450.88;6220346;23;20095;-78
2023/03/06 10:35:49;;;;;;;21.55;8.82;;;;;;;8.14;88.19;91442.94;6193952;23;20023;-78
2023/03/06 10:38:26;;;;;;;17.20;7.55;;;;;;;8.30;84.19;91439.97;6221347;23;20012;-78
2023/03/06 10:41:10;;;;;;;22.35;7.85;;;;;;;8.06;84.20;91440.25;6221022;23;20115;-78
2023/03/06 10:43:41;;;;;;;15.70;7.80;;;;;;;8.18;85.18;91440.50;6194056;23;20016;-78
2023/03/06 10:46:08;;;;;;;15.00;7.15;;;;;;;8.36;85.67;91441.41;6195860;23;20008;-78
2023/03/06 10:48:36;;;;;;;15.57;7.63;;;;;;;8.12;84.70;91434.63;6223537;23;19996;-78
2023/03/06 10:51:14;;;;;;;13.10;7.40;;;;;;;7.83;85.04;91431.66;6168303;23;20047;-78
2023/03/06 10:53:58;;;;;;;18.70;8.50;;;;;;;7.94;85.89;91435.56;6218982;23;20012;-78
2023/03/06 10:56:36;;;;;;;19.50;8.35;;;;;;;7.74;87.23;91428.22;6193062;23;20090;-78
2023/03/06 10:59:14;;;;;;;17.27;8.05;;;;;;;7.82;87.07;91430.13;6193432;23;20040;-78
2023/03/06 11:01:43;;;;;;;18.65;9.02;;;;;;;7.56;88.34;91409.81;6218852;23;20040;-78
2023/03/06 11:04:30;;;;;;;16.40;7.93;;;;;;;7.78;87.88;91421.34;6191880;23;20028;-78
2023/03/06 11:07:18;;;;;;;16.50;8.02;;;;;;;8.01;85.75;91422.13;6166803;23;20302;-78
2023/03/06 11:09:57;;;;;;;17.70;7.85;;;;;;;8.45;84.60;91416.16;6217627;23;20499;-78
2023/03/06 11:12:22;;;;;;;11.50;5.80;;;;;;;8.50;82.96;91415.28;6216911;23;20039;-78
2023/03/06 11:15:07;;;;;;;14.07;6.78;;;;;;;8.30;81.78;91408.69;6191217;23;20000;-77
2023/03/06 11:17:47;;;;;;;13.23;7.03;;;;;;;8.33;83.27;91410.69;6217389;23;20004;-78
2023/03/06 11:20:20;;;;;;;15.77;6.78;;;;;;;8.34;80.68;91399.22;6217129;23;20460;-78
2023/03/06 11:22:56;;;;;;;9.40;5.05;;;;;;;8.44;81.93;91398.97;6216443;23;20020;-78
2023/03/06 11:25:27;;;;;;;15.20;6.95;;;;;;;8.53;81.67;91397.19;6217294;23;20008;-78
2023/03/06 11:28:07;;;;;;;16.38;7.55;;;;;;;8.38;81.70;91394.94;6189265;23;20091;-77
2023/03/06 11:30:40;;;;;;;19.33;7.32;;;;;;;8.37;80.14;91401.22;6191214;23;20084;-78